sensor_id;sensor_type;location;lat;lon;timestamp;P1;durP1;ratioP1;P2;durP2;ratioP2
12194;SDS011;27023;42.680;23.132;2022-09-06T00:00:42;21.13;;;20.33;;
12194;SDS011;27023;42.680;23.132;2022-09-06T00:03:08;23.67;;;22.67;;
12194;SDS011;27023;42.680;23.132;2022-09-06T00:05:35;16.00;;;15.47;;
12194;SDS011;27023;42.680;23.132;2022-09-06T00:08:03;13.17;;;12.77;;
12194;SDS011;27023;42.680;23.132;2022-09-06T00:10:31;13.43;;;13.03;;
12194;SDS011;27023;42.680;23.132;2022-09-06T00:12:59;15.17;;;14.67;;
12194;SDS011;27023;42.680;23.132;2022-09-06T00:15:27;15.97;;;15.40;;
12194;SDS011;27023;42.680;23.132;2022-09-06T00:17:56;13.60;;;13.20;;
12194;SDS011;27023;42.680;23.132;2022-09-06T00:20:23;13.27;;;12.87;;
12194;SDS011;27023;42.680;23.132;2022-09-06T00:22:51;10.77;;;10.47;;
12194;SDS011;27023;42.680;23.132;2022-09-06T00:25:21;10.43;;;10.17;;
12194;SDS011;27023;42.680;23.132;2022-09-06T00:27:51;12.43;;;12.07;;
12194;SDS011;27023;42.680;23.132;2022-09-06T00:30:19;12.77;;;12.37;;
12194;SDS011;27023;42.680;23.132;2022-09-06T00:32:45;10.80;;;10.50;;
12194;SDS011;27023;42.680;23.132;2022-09-06T00:35:14;11.57;;;11.27;;
12194;SDS011;27023;42.680;23.132;2022-09-06T00:37:40;15.83;;;15.23;;
12194;SDS011;27023;42.680;23.132;2022-09-06T00:40:07;11.80;;;11.50;;
12194;SDS011;27023;42.680;23.132;2022-09-06T00:42:34;11.00;;;10.70;;
12194;SDS011;27023;42.680;23.132;2022-09-06T00:45:01;12.60;;;12.20;;
12194;SDS011;27023;42.680;23.132;2022-09-06T00:47:29;12.93;;;12.53;;
12194;SDS011;27023;42.680;23.132;2022-09-06T00:49:56;12.47;;;12.07;;
12194;SDS011;27023;42.680;23.132;2022-09-06T00:52:26;13.67;;;13.27;;
12194;SDS011;27023;42.680;23.132;2022-09-06T00:54:54;13.70;;;13.30;;
12194;SDS011;27023;42.680;23.132;2022-09-06T00:57:21;11.57;;;11.27;;
12194;SDS011;27023;42.680;23.132;2022-09-06T00:59:51;10.33;;;10.10;;
12194;SDS011;27023;42.680;23.132;2022-09-06T01:02:19;10.83;;;10.53;;
12194;SDS011;27023;42.680;23.132;2022-09-06T01:04:46;12.03;;;11.73;;
12194;SDS011;27023;42.680;23.132;2022-09-06T01:07:17;13.17;;;12.77;;
12194;SDS011;27023;42.680;23.132;2022-09-06T01:10:02;12.63;;;12.23;;
12194;SDS011;27023;42.680;23.132;2022-09-06T01:12:40;8.20;;;8.10;;
12194;SDS011;27023;42.680;23.132;2022-09-06T01:15:19;8.37;;;8.23;;
12194;SDS011;27023;42.680;23.132;2022-09-06T01:17:58;13.10;;;12.70;;
12194;SDS011;27023;42.680;23.132;2022-09-06T01:20:44;11.13;;;10.83;;
12194;SDS011;27023;42.680;23.132;2022-09-06T01:23:41;10.70;;;10.43;;
12194;SDS011;27023;42.680;23.132;2022-09-06T01:29:25;10.10;;;9.90;;
12194;SDS011;27023;42.680;23.132;2022-09-06T01:31:59;9.07;;;8.87;;
12194;SDS011;27023;42.680;23.132;2022-09-06T01:34:36;11.03;;;10.73;;
12194;SDS011;27023;42.680;23.132;2022-09-06T01:37:10;9.83;;;9.60;;
12194;SDS011;27023;42.680;23.132;2022-09-06T01:39:39;8.60;;;8.40;;
12194;SDS011;27023;42.680;23.132;2022-09-06T01:42:07;9.00;;;8.80;;
12194;SDS011;27023;42.680;23.132;2022-09-06T01:44:38;9.57;;;9.37;;
12194;SDS011;27023;42.680;23.132;2022-09-06T01:47:12;10.03;;;9.80;;
12194;SDS011;27023;42.680;23.132;2022-09-06T01:49:50;9.60;;;9.40;;
12194;SDS011;27023;42.680;23.132;2022-09-06T01:52:32;6.77;;;6.67;;
12194;SDS011;27023;42.680;23.132;2022-09-06T01:55:08;7.67;;;7.57;;
12194;SDS011;27023;42.680;23.132;2022-09-06T01:57:52;8.37;;;8.23;;
12194;SDS011;27023;42.680;23.132;2022-09-06T02:00:32;8.63;;;8.43;;
12194;SDS011;27023;42.680;23.132;2022-09-06T02:03:06;11.93;;;11.63;;
12194;SDS011;27023;42.680;23.132;2022-09-06T02:05:40;10.77;;;10.47;;
12194;SDS011;27023;42.680;23.132;2022-09-06T02:08:11;10.53;;;10.23;;
12194;SDS011;27023;42.680;23.132;2022-09-06T02:10:44;11.73;;;11.43;;
12194;SDS011;27023;42.680;23.132;2022-09-06T02:13:15;9.03;;;8.83;;
12194;SDS011;27023;42.680;23.132;2022-09-06T02:15:48;6.70;;;6.60;;
12194;SDS011;27023;42.680;23.132;2022-09-06T02:18:18;8.50;;;8.30;;
12194;SDS011;27023;42.680;23.132;2022-09-06T02:20:50;11.40;;;11.10;;
12194;SDS011;27023;42.680;23.132;2022-09-06T02:23:19;10.33;;;10.13;;
12194;SDS011;27023;42.680;23.132;2022-09-06T02:25:52;8.97;;;8.77;;
12194;SDS011;27023;42.680;23.132;2022-09-06T02:28:20;8.00;;;7.90;;
12194;SDS011;27023;42.680;23.132;2022-09-06T02:30:49;10.03;;;9.83;;
12194;SDS011;27023;42.680;23.132;2022-09-06T02:33:22;10.97;;;10.67;;
12194;SDS011;27023;42.680;23.132;2022-09-06T02:35:52;9.60;;;9.40;;
12194;SDS011;27023;42.680;23.132;2022-09-06T02:38:20;9.70;;;9.50;;
12194;SDS011;27023;42.680;23.132;2022-09-06T02:40:49;12.40;;;12.00;;
12194;SDS011;27023;42.680;23.132;2022-09-06T02:43:19;16.73;;;16.13;;
12194;SDS011;27023;42.680;23.132;2022-09-06T02:45:46;10.80;;;10.50;;
12194;SDS011;27023;42.680;23.132;2022-09-06T02:48:14;9.87;;;9.67;;
12194;SDS011;27023;42.680;23.132;2022-09-06T02:50:42;12.63;;;12.23;;
12194;SDS011;27023;42.680;23.132;2022-09-06T02:53:12;20.70;;;19.90;;
12194;SDS011;27023;42.680;23.132;2022-09-06T02:55:40;25.70;;;24.63;;
12194;SDS011;27023;42.680;23.132;2022-09-06T02:58:09;21.60;;;20.73;;
12194;SDS011;27023;42.680;23.132;2022-09-06T03:00:36;11.93;;;11.63;;
12194;SDS011;27023;42.680;23.132;2022-09-06T03:03:03;11.27;;;10.97;;
12194;SDS011;27023;42.680;23.132;2022-09-06T03:05:32;9.93;;;9.73;;
12194;SDS011;27023;42.680;23.132;2022-09-06T03:07:59;12.27;;;11.93;;
12194;SDS011;27023;42.680;23.132;2022-09-06T03:10:26;17.83;;;17.17;;
12194;SDS011;27023;42.680;23.132;2022-09-06T03:12:53;16.10;;;15.53;;
12194;SDS011;27023;42.680;23.132;2022-09-06T03:15:19;13.70;;;13.30;;
12194;SDS011;27023;42.680;23.132;2022-09-06T03:17:46;18.30;;;17.60;;
12194;SDS011;27023;42.680;23.132;2022-09-06T03:20:13;18.73;;;18.03;;
12194;SDS011;27023;42.680;23.132;2022-09-06T03:22:41;17.60;;;16.97;;
12194;SDS011;27023;42.680;23.132;2022-09-06T03:25:08;13.70;;;13.27;;
12194;SDS011;27023;42.680;23.132;2022-09-06T03:27:36;17.80;;;17.13;;
12194;SDS011;27023;42.680;23.132;2022-09-06T03:30:03;19.83;;;19.07;;
12194;SDS011;27023;42.680;23.132;2022-09-06T03:32:31;15.90;;;15.33;;
12194;SDS011;27023;42.680;23.132;2022-09-06T03:34:57;13.23;;;12.83;;
12194;SDS011;27023;42.680;23.132;2022-09-06T03:37:24;17.30;;;16.70;;
12194;SDS011;27023;42.680;23.132;2022-09-06T03:39:52;18.37;;;17.67;;
12194;SDS011;27023;42.680;23.132;2022-09-06T03:42:19;20.17;;;19.37;;
12194;SDS011;27023;42.680;23.132;2022-09-06T03:44:46;20.43;;;19.63;;
12194;SDS011;27023;42.680;23.132;2022-09-06T03:47:13;22.50;;;21.57;;
12194;SDS011;27023;42.680;23.132;2022-09-06T03:49:40;27.40;;;26.23;;
12194;SDS011;27023;42.680;23.132;2022-09-06T03:52:06;18.60;;;17.90;;
12194;SDS011;27023;42.680;23.132;2022-09-06T03:54:33;17.73;;;17.10;;
12194;SDS011;27023;42.680;23.132;2022-09-06T03:57:01;17.10;;;16.47;;
12194;SDS011;27023;42.680;23.132;2022-09-06T03:59:28;18.20;;;17.53;;
12194;SDS011;27023;42.680;23.132;2022-09-06T04:01:55;21.23;;;20.40;;
12194;SDS011;27023;42.680;23.132;2022-09-06T04:04:21;21.77;;;20.87;;
12194;SDS011;27023;42.680;23.132;2022-09-06T04:06:48;21.47;;;20.60;;
12194;SDS011;27023;42.680;23.132;2022-09-06T04:09:15;20.07;;;19.27;;
12194;SDS011;27023;42.680;23.132;2022-09-06T04:11:42;16.83;;;16.23;;
12194;SDS011;27023;42.680;23.132;2022-09-06T04:14:10;14.83;;;14.33;;
12194;SDS011;27023;42.680;23.132;2022-09-06T04:16:36;15.00;;;14.50;;
12194;SDS011;27023;42.680;23.132;2022-09-06T04:19:03;17.43;;;16.83;;
12194;SDS011;27023;42.680;23.132;2022-09-06T04:21:30;17.50;;;16.90;;
12194;SDS011;27023;42.680;23.132;2022-09-06T04:23:56;17.57;;;16.93;;
12194;SDS011;27023;42.680;23.132;2022-09-06T04:26:23;15.80;;;15.27;;
12194;SDS011;27023;42.680;23.132;2022-09-06T04:28:50;19.00;;;18.23;;
12194;SDS011;27023;42.680;23.132;2022-09-06T04:31:18;16.63;;;16.03;;
12194;SDS011;27023;42.680;23.132;2022-09-06T04:33:45;16.60;;;16.00;;
12194;SDS011;27023;42.680;23.132;2022-09-06T04:36:11;16.37;;;15.77;;
12194;SDS011;27023;42.680;23.132;2022-09-06T04:38:39;12.73;;;12.33;;
12194;SDS011;27023;42.680;23.132;2022-09-06T04:41:07;18.90;;;18.20;;
12194;SDS011;27023;42.680;23.132;2022-09-06T04:43:35;17.33;;;16.70;;
12194;SDS011;27023;42.680;23.132;2022-09-06T04:46:05;15.33;;;14.83;;
12194;SDS011;27023;42.680;23.132;2022-09-06T04:48:45;17.53;;;16.90;;
12194;SDS011;27023;42.680;23.132;2022-09-06T04:51:12;17.67;;;17.03;;
12194;SDS011;27023;42.680;23.132;2022-09-06T04:53:39;16.23;;;15.63;;
12194;SDS011;27023;42.680;23.132;2022-09-06T04:56:05;17.07;;;16.47;;
12194;SDS011;27023;42.680;23.132;2022-09-06T04:58:32;15.07;;;14.57;;
12194;SDS011;27023;42.680;23.132;2022-09-06T05:00:59;15.53;;;15.03;;
12194;SDS011;27023;42.680;23.132;2022-09-06T05:03:25;14.07;;;13.63;;
12194;SDS011;27023;42.680;23.132;2022-09-06T05:06:03;15.53;;;15.03;;
12194;SDS011;27023;42.680;23.132;2022-09-06T05:08:31;13.93;;;13.53;;
12194;SDS011;27023;42.680;23.132;2022-09-06T05:10:57;13.60;;;13.20;;
12194;SDS011;27023;42.680;23.132;2022-09-06T05:13:24;15.43;;;14.93;;
12194;SDS011;27023;42.680;23.132;2022-09-06T05:15:51;19.10;;;18.40;;
12194;SDS011;27023;42.680;23.132;2022-09-06T05:18:17;20.57;;;19.77;;
12194;SDS011;27023;42.680;23.132;2022-09-06T05:20:49;20.73;;;19.93;;
12194;SDS011;27023;42.680;23.132;2022-09-06T05:23:18;21.93;;;21.03;;
12194;SDS011;27023;42.680;23.132;2022-09-06T05:25:45;19.90;;;19.13;;
12194;SDS011;27023;42.680;23.132;2022-09-06T05:28:12;20.07;;;19.27;;
12194;SDS011;27023;42.680;23.132;2022-09-06T05:30:39;20.77;;;19.97;;
12194;SDS011;27023;42.680;23.132;2022-09-06T05:33:06;21.47;;;20.60;;
12194;SDS011;27023;42.680;23.132;2022-09-06T05:35:33;19.60;;;18.87;;
12194;SDS011;27023;42.680;23.132;2022-09-06T05:38:00;18.57;;;17.87;;
12194;SDS011;27023;42.680;23.132;2022-09-06T05:40:29;18.03;;;17.37;;
12194;SDS011;27023;42.680;23.132;2022-09-06T05:42:56;18.50;;;17.80;;
12194;SDS011;27023;42.680;23.132;2022-09-06T05:45:23;17.90;;;17.23;;
12194;SDS011;27023;42.680;23.132;2022-09-06T05:47:49;19.17;;;18.47;;
12194;SDS011;27023;42.680;23.132;2022-09-06T05:50:16;20.53;;;19.73;;
12194;SDS011;27023;42.680;23.132;2022-09-06T05:52:43;15.63;;;15.13;;
12194;SDS011;27023;42.680;23.132;2022-09-06T05:55:10;18.47;;;17.77;;
12194;SDS011;27023;42.680;23.132;2022-09-06T05:57:38;17.07;;;16.47;;
12194;SDS011;27023;42.680;23.132;2022-09-06T06:00:05;15.00;;;14.50;;
12194;SDS011;27023;42.680;23.132;2022-09-06T06:02:32;10.37;;;10.07;;
12194;SDS011;27023;42.680;23.132;2022-09-06T06:04:59;14.80;;;14.30;;
12194;SDS011;27023;42.680;23.132;2022-09-06T06:07:26;14.10;;;13.63;;
12194;SDS011;27023;42.680;23.132;2022-09-06T06:09:53;9.43;;;9.23;;
12194;SDS011;27023;42.680;23.132;2022-09-06T06:12:19;11.93;;;11.57;;
12194;SDS011;27023;42.680;23.132;2022-09-06T06:14:47;12.93;;;12.53;;
12194;SDS011;27023;42.680;23.132;2022-09-06T06:17:14;15.63;;;15.10;;
12194;SDS011;27023;42.680;23.132;2022-09-06T06:19:41;9.60;;;9.40;;
12194;SDS011;27023;42.680;23.132;2022-09-06T06:22:08;9.27;;;9.07;;
12194;SDS011;27023;42.680;23.132;2022-09-06T06:24:34;13.40;;;13.00;;
12194;SDS011;27023;42.680;23.132;2022-09-06T06:27:01;9.50;;;9.30;;
12194;SDS011;27023;42.680;23.132;2022-09-06T06:29:28;11.23;;;10.93;;
12194;SDS011;27023;42.680;23.132;2022-09-06T06:31:56;11.03;;;10.73;;
12194;SDS011;27023;42.680;23.132;2022-09-06T06:34:23;6.90;;;6.77;;
12194;SDS011;27023;42.680;23.132;2022-09-06T06:36:50;11.67;;;11.37;;
12194;SDS011;27023;42.680;23.132;2022-09-06T06:39:16;7.60;;;7.33;;
12194;SDS011;27023;42.680;23.132;2022-09-06T06:41:43;12.60;;;12.20;;
12194;SDS011;27023;42.680;23.132;2022-09-06T06:44:10;9.77;;;9.50;;
12194;SDS011;27023;42.680;23.132;2022-09-06T06:46:37;13.87;;;13.37;;
12194;SDS011;27023;42.680;23.132;2022-09-06T06:49:07;12.07;;;11.67;;
12194;SDS011;27023;42.680;23.132;2022-09-06T06:51:33;11.63;;;11.30;;
12194;SDS011;27023;42.680;23.132;2022-09-06T06:54:02;9.63;;;9.33;;
12194;SDS011;27023;42.680;23.132;2022-09-06T06:56:29;10.30;;;10.00;;
12194;SDS011;27023;42.680;23.132;2022-09-06T06:58:58;11.10;;;10.70;;
12194;SDS011;27023;42.680;23.132;2022-09-06T07:01:27;11.23;;;10.83;;
12194;SDS011;27023;42.680;23.132;2022-09-06T07:03:55;15.50;;;14.97;;
12194;SDS011;27023;42.680;23.132;2022-09-06T07:06:24;9.50;;;9.20;;
12194;SDS011;27023;42.680;23.132;2022-09-06T07:08:52;12.33;;;11.93;;
12194;SDS011;27023;42.680;23.132;2022-09-06T07:11:18;13.47;;;12.97;;
12194;SDS011;27023;42.680;23.132;2022-09-06T07:13:45;7.10;;;6.90;;
12194;SDS011;27023;42.680;23.132;2022-09-06T07:16:12;2.93;;;2.83;;
12194;SDS011;27023;42.680;23.132;2022-09-06T07:18:40;12.43;;;12.00;;
12194;SDS011;27023;42.680;23.132;2022-09-06T07:21:10;12.23;;;11.83;;
12194;SDS011;27023;42.680;23.132;2022-09-06T07:23:39;6.43;;;6.30;;
12194;SDS011;27023;42.680;23.132;2022-09-06T07:26:06;2.20;;;2.20;;
12194;SDS011;27023;42.680;23.132;2022-09-06T07:28:33;4.80;;;4.70;;
12194;SDS011;27023;42.680;23.132;2022-09-06T07:31:00;9.83;;;9.57;;
12194;SDS011;27023;42.680;23.132;2022-09-06T07:33:26;7.60;;;7.40;;
12194;SDS011;27023;42.680;23.132;2022-09-06T07:35:54;2.67;;;2.57;;
12194;SDS011;27023;42.680;23.132;2022-09-06T07:38:21;2.27;;;2.23;;
12194;SDS011;27023;42.680;23.132;2022-09-06T07:40:52;1.80;;;1.80;;
12194;SDS011;27023;42.680;23.132;2022-09-06T07:43:20;4.60;;;4.47;;
12194;SDS011;27023;42.680;23.132;2022-09-06T07:45:47;4.00;;;2.80;;
12194;SDS011;27023;42.680;23.132;2022-09-06T07:48:14;2.17;;;2.07;;
12194;SDS011;27023;42.680;23.132;2022-09-06T07:50:41;4.00;;;2.10;;
12194;SDS011;27023;42.680;23.132;2022-09-06T07:53:08;2.23;;;2.13;;
12194;SDS011;27023;42.680;23.132;2022-09-06T07:55:35;1.87;;;1.87;;
12194;SDS011;27023;42.680;23.132;2022-09-06T07:58:03;4.50;;;4.20;;
12194;SDS011;27023;42.680;23.132;2022-09-06T08:00:30;3.30;;;3.20;;
12194;SDS011;27023;42.680;23.132;2022-09-06T08:02:56;3.20;;;3.10;;
12194;SDS011;27023;42.680;23.132;2022-09-06T08:05:23;2.90;;;2.80;;
12194;SDS011;27023;42.680;23.132;2022-09-06T08:07:50;3.50;;;3.33;;
12194;SDS011;27023;42.680;23.132;2022-09-06T08:10:17;3.10;;;3.00;;
12194;SDS011;27023;42.680;23.132;2022-09-06T08:12:44;2.00;;;2.00;;
12194;SDS011;27023;42.680;23.132;2022-09-06T08:15:12;3.10;;;3.00;;
12194;SDS011;27023;42.680;23.132;2022-09-06T08:17:39;2.90;;;2.87;;
12194;SDS011;27023;42.680;23.132;2022-09-06T08:20:06;2.80;;;2.70;;
12194;SDS011;27023;42.680;23.132;2022-09-06T08:22:33;2.83;;;2.73;;
12194;SDS011;27023;42.680;23.132;2022-09-06T08:25:00;2.73;;;2.60;;
12194;SDS011;27023;42.680;23.132;2022-09-06T08:27:26;2.03;;;2.03;;
12194;SDS011;27023;42.680;23.132;2022-09-06T08:29:53;2.53;;;2.50;;
12194;SDS011;27023;42.680;23.132;2022-09-06T08:32:21;2.03;;;2.03;;
12194;SDS011;27023;42.680;23.132;2022-09-06T08:34:48;2.17;;;2.17;;
12194;SDS011;27023;42.680;23.132;2022-09-06T08:37:15;2.40;;;2.40;;
12194;SDS011;27023;42.680;23.132;2022-09-06T08:39:41;2.00;;;2.00;;
12194;SDS011;27023;42.680;23.132;2022-09-06T08:42:08;3.00;;;2.90;;
12194;SDS011;27023;42.680;23.132;2022-09-06T08:44:37;2.00;;;2.00;;
12194;SDS011;27023;42.680;23.132;2022-09-06T08:47:07;2.43;;;2.37;;
12194;SDS011;27023;42.680;23.132;2022-09-06T08:49:37;1.90;;;1.90;;
12194;SDS011;27023;42.680;23.132;2022-09-06T08:52:21;2.00;;;2.00;;
12194;SDS011;27023;42.680;23.132;2022-09-06T08:54:58;2.53;;;2.43;;
12194;SDS011;27023;42.680;23.132;2022-09-06T08:57:39;2.33;;;2.23;;
12194;SDS011;27023;42.680;23.132;2022-09-06T09:00:24;2.17;;;2.07;;
12194;SDS011;27023;42.680;23.132;2022-09-06T09:02:51;2.37;;;2.37;;
12194;SDS011;27023;42.680;23.132;2022-09-06T09:05:26;2.70;;;2.60;;
12194;SDS011;27023;42.680;23.132;2022-09-06T09:07:59;8.43;;;3.60;;
12194;SDS011;27023;42.680;23.132;2022-09-06T09:10:33;1.70;;;1.70;;
12194;SDS011;27023;42.680;23.132;2022-09-06T09:13:07;2.70;;;2.63;;
12194;SDS011;27023;42.680;23.132;2022-09-06T09:15:42;1.83;;;1.83;;
12194;SDS011;27023;42.680;23.132;2022-09-06T09:18:08;2.43;;;2.43;;
12194;SDS011;27023;42.680;23.132;2022-09-06T09:20:37;2.30;;;2.30;;
12194;SDS011;27023;42.680;23.132;2022-09-06T09:23:04;2.15;;;2.05;;
12194;SDS011;27023;42.680;23.132;2022-09-06T09:25:31;2.20;;;2.10;;
12194;SDS011;27023;42.680;23.132;2022-09-06T09:27:59;2.78;;;2.72;;
12194;SDS011;27023;42.680;23.132;2022-09-06T09:30:27;2.78;;;2.67;;
12194;SDS011;27023;42.680;23.132;2022-09-06T09:33:19;1.98;;;1.98;;
12194;SDS011;27023;42.680;23.132;2022-09-06T09:35:49;2.53;;;2.42;;
12194;SDS011;27023;42.680;23.132;2022-09-06T09:38:18;2.15;;;2.08;;
12194;SDS011;27023;42.680;23.132;2022-09-06T09:40:51;2.58;;;2.47;;
12194;SDS011;27023;42.680;23.132;2022-09-06T09:43:19;2.17;;;2.17;;
12194;SDS011;27023;42.680;23.132;2022-09-06T09:46:10;2.67;;;2.58;;
12194;SDS011;27023;42.680;23.132;2022-09-06T09:48:40;2.40;;;2.13;;
12194;SDS011;27023;42.680;23.132;2022-09-06T09:51:19;2.50;;;2.40;;
12194;SDS011;27023;42.680;23.132;2022-09-06T09:53:51;2.50;;;2.40;;
12194;SDS011;27023;42.680;23.132;2022-09-06T09:56:23;3.25;;;3.15;;
12194;SDS011;27023;42.680;23.132;2022-09-06T09:58:53;3.53;;;3.35;;
12194;SDS011;27023;42.680;23.132;2022-09-06T10:01:24;2.38;;;2.28;;
12194;SDS011;27023;42.680;23.132;2022-09-06T10:03:58;2.92;;;2.78;;
12194;SDS011;27023;42.680;23.132;2022-09-06T10:06:28;2.58;;;2.45;;
12194;SDS011;27023;42.680;23.132;2022-09-06T10:08:55;3.05;;;3.05;;
12194;SDS011;27023;42.680;23.132;2022-09-06T10:11:38;2.28;;;2.28;;
12194;SDS011;27023;42.680;23.132;2022-09-06T10:14:23;2.67;;;2.55;;
12194;SDS011;27023;42.680;23.132;2022-09-06T10:16:55;2.83;;;2.72;;
12194;SDS011;27023;42.680;23.132;2022-09-06T10:19:34;3.00;;;2.90;;
12194;SDS011;27023;42.680;23.132;2022-09-06T10:25:02;2.15;;;2.05;;
12194;SDS011;27023;42.680;23.132;2022-09-06T10:31:07;2.10;;;2.10;;
12194;SDS011;27023;42.680;23.132;2022-09-06T10:34:02;2.20;;;2.10;;
12194;SDS011;27023;42.680;23.132;2022-09-06T10:36:43;1.98;;;1.98;;
12194;SDS011;27023;42.680;23.132;2022-09-06T10:39:22;2.17;;;2.08;;
12194;SDS011;27023;42.680;23.132;2022-09-06T10:42:00;2.08;;;2.08;;
12194;SDS011;27023;42.680;23.132;2022-09-06T10:44:50;2.80;;;2.70;;
12194;SDS011;27023;42.680;23.132;2022-09-06T10:47:30;2.05;;;2.03;;
12194;SDS011;27023;42.680;23.132;2022-09-06T10:50:01;2.08;;;2.08;;
12194;SDS011;27023;42.680;23.132;2022-09-06T10:52:32;2.28;;;2.28;;
12194;SDS011;27023;42.680;23.132;2022-09-06T10:55:04;2.47;;;2.40;;
12194;SDS011;27023;42.680;23.132;2022-09-06T10:57:35;2.05;;;1.95;;
12194;SDS011;27023;42.680;23.132;2022-09-06T11:00:08;1.98;;;1.88;;
12194;SDS011;27023;42.680;23.132;2022-09-06T11:02:38;1.60;;;1.60;;
12194;SDS011;27023;42.680;23.132;2022-09-06T11:05:10;2.30;;;2.30;;
12194;SDS011;27023;42.680;23.132;2022-09-06T11:07:39;4.20;;;4.00;;
12194;SDS011;27023;42.680;23.132;2022-09-06T11:10:11;4.30;;;4.20;;
12194;SDS011;27023;42.680;23.132;2022-09-06T11:12:44;2.45;;;2.35;;
12194;SDS011;27023;42.680;23.132;2022-09-06T11:15:17;2.92;;;2.83;;
12194;SDS011;27023;42.680;23.132;2022-09-06T11:17:46;2.33;;;2.22;;
12194;SDS011;27023;42.680;23.132;2022-09-06T11:20:20;1.98;;;1.95;;
12194;SDS011;27023;42.680;23.132;2022-09-06T11:22:59;2.72;;;2.63;;
12194;SDS011;27023;42.680;23.132;2022-09-06T11:25:43;2.33;;;2.22;;
12194;SDS011;27023;42.680;23.132;2022-09-06T11:28:22;3.22;;;3.13;;
12194;SDS011;27023;42.680;23.132;2022-09-06T11:30:55;2.08;;;2.00;;
12194;SDS011;27023;42.680;23.132;2022-09-06T11:33:23;2.45;;;2.35;;
12194;SDS011;27023;42.680;23.132;2022-09-06T11:36:13;2.35;;;2.25;;
12194;SDS011;27023;42.680;23.132;2022-09-06T11:38:41;2.20;;;2.10;;
12194;SDS011;27023;42.680;23.132;2022-09-06T11:41:13;2.17;;;2.08;;
12194;SDS011;27023;42.680;23.132;2022-09-06T11:43:43;2.38;;;2.28;;
12194;SDS011;27023;42.680;23.132;2022-09-06T11:49:28;1.30;;;1.30;;
12194;SDS011;27023;42.680;23.132;2022-09-06T11:51:57;1.55;;;1.55;;
12194;SDS011;27023;42.680;23.132;2022-09-06T11:54:25;1.50;;;1.50;;
12194;SDS011;27023;42.680;23.132;2022-09-06T11:57:01;1.75;;;1.65;;
12194;SDS011;27023;42.680;23.132;2022-09-06T11:59:39;1.77;;;1.77;;
12194;SDS011;27023;42.680;23.132;2022-09-06T12:02:34;1.77;;;1.67;;
12194;SDS011;27023;42.680;23.132;2022-09-06T12:05:09;1.70;;;1.60;;
12194;SDS011;27023;42.680;23.132;2022-09-06T12:10:45;2.05;;;1.95;;
12194;SDS011;27023;42.680;23.132;2022-09-06T12:16:05;2.13;;;1.83;;
12194;SDS011;27023;42.680;23.132;2022-09-06T12:18:54;1.83;;;1.73;;
12194;SDS011;27023;42.680;23.132;2022-09-06T12:27:25;1.45;;;1.45;;
12194;SDS011;27023;42.680;23.132;2022-09-06T12:29:57;2.22;;;2.13;;
12194;SDS011;27023;42.680;23.132;2022-09-06T12:32:27;1.80;;;1.73;;
12194;SDS011;27023;42.680;23.132;2022-09-06T12:34:56;2.35;;;2.25;;
12194;SDS011;27023;42.680;23.132;2022-09-06T12:37:31;2.25;;;2.15;;
12194;SDS011;27023;42.680;23.132;2022-09-06T12:40:02;1.80;;;1.75;;
12194;SDS011;27023;42.680;23.132;2022-09-06T12:42:30;2.00;;;1.90;;
12194;SDS011;27023;42.680;23.132;2022-09-06T12:45:01;2.08;;;2.08;;
12194;SDS011;27023;42.680;23.132;2022-09-06T12:47:30;2.25;;;2.25;;
12194;SDS011;27023;42.680;23.132;2022-09-06T12:50:09;1.85;;;1.85;;
12194;SDS011;27023;42.680;23.132;2022-09-06T12:52:45;1.58;;;1.52;;
12194;SDS011;27023;42.680;23.132;2022-09-06T12:55:15;1.42;;;1.42;;
12194;SDS011;27023;42.680;23.132;2022-09-06T12:57:48;2.25;;;2.17;;
12194;SDS011;27023;42.680;23.132;2022-09-06T13:00:19;1.65;;;1.65;;
12194;SDS011;27023;42.680;23.132;2022-09-06T13:02:51;1.60;;;1.50;;
12194;SDS011;27023;42.680;23.132;2022-09-06T13:05:22;2.15;;;2.10;;
12194;SDS011;27023;42.680;23.132;2022-09-06T13:07:51;1.50;;;1.50;;
12194;SDS011;27023;42.680;23.132;2022-09-06T13:10:21;1.30;;;1.30;;
12194;SDS011;27023;42.680;23.132;2022-09-06T13:12:51;1.60;;;1.60;;
12194;SDS011;27023;42.680;23.132;2022-09-06T13:15:22;4.20;;;1.75;;
12194;SDS011;27023;42.680;23.132;2022-09-06T13:17:51;2.17;;;2.08;;
12194;SDS011;27023;42.680;23.132;2022-09-06T13:20:23;2.40;;;2.30;;
12194;SDS011;27023;42.680;23.132;2022-09-06T13:22:52;1.77;;;1.67;;
12194;SDS011;27023;42.680;23.132;2022-09-06T13:25:30;2.10;;;2.03;;
12194;SDS011;27023;42.680;23.132;2022-09-06T13:27:57;1.55;;;1.52;;
12194;SDS011;27023;42.680;23.132;2022-09-06T13:33:19;2.08;;;1.98;;
12194;SDS011;27023;42.680;23.132;2022-09-06T13:35:50;2.63;;;2.53;;
12194;SDS011;27023;42.680;23.132;2022-09-06T13:38:31;1.50;;;1.48;;
12194;SDS011;27023;42.680;23.132;2022-09-06T13:40:59;1.15;;;1.10;;
12194;SDS011;27023;42.680;23.132;2022-09-06T13:43:26;1.77;;;1.73;;
12194;SDS011;27023;42.680;23.132;2022-09-06T13:46:05;1.85;;;1.75;;
12194;SDS011;27023;42.680;23.132;2022-09-06T13:48:33;1.33;;;1.23;;
12194;SDS011;27023;42.680;23.132;2022-09-06T13:51:02;1.35;;;1.25;;
12194;SDS011;27023;42.680;23.132;2022-09-06T13:53:30;1.23;;;1.23;;
12194;SDS011;27023;42.680;23.132;2022-09-06T13:55:57;1.73;;;1.63;;
12194;SDS011;27023;42.680;23.132;2022-09-06T13:58:24;1.17;;;1.15;;
12194;SDS011;27023;42.680;23.132;2022-09-06T14:00:51;1.38;;;1.38;;
12194;SDS011;27023;42.680;23.132;2022-09-06T14:03:21;1.73;;;1.63;;
12194;SDS011;27023;42.680;23.132;2022-09-06T14:05:51;4.15;;;1.65;;
12194;SDS011;27023;42.680;23.132;2022-09-06T14:08:18;1.35;;;1.33;;
12194;SDS011;27023;42.680;23.132;2022-09-06T14:10:45;2.00;;;1.90;;
12194;SDS011;27023;42.680;23.132;2022-09-06T14:13:12;2.08;;;1.45;;
12194;SDS011;27023;42.680;23.132;2022-09-06T14:15:39;1.23;;;1.17;;
12194;SDS011;27023;42.680;23.132;2022-09-06T14:18:06;1.60;;;1.50;;
12194;SDS011;27023;42.680;23.132;2022-09-06T14:20:34;2.03;;;1.92;;
12194;SDS011;27023;42.680;23.132;2022-09-06T14:23:01;1.50;;;1.50;;
12194;SDS011;27023;42.680;23.132;2022-09-06T14:25:28;1.67;;;1.67;;
12194;SDS011;27023;42.680;23.132;2022-09-06T14:27:55;4.22;;;1.75;;
12194;SDS011;27023;42.680;23.132;2022-09-06T14:30:22;1.35;;;1.35;;
12194;SDS011;27023;42.680;23.132;2022-09-06T14:32:49;1.33;;;1.25;;
12194;SDS011;27023;42.680;23.132;2022-09-06T14:35:16;1.35;;;1.33;;
12194;SDS011;27023;42.680;23.132;2022-09-06T14:37:44;1.50;;;1.40;;
12194;SDS011;27023;42.680;23.132;2022-09-06T14:40:10;0.98;;;0.98;;
12194;SDS011;27023;42.680;23.132;2022-09-06T14:42:37;1.17;;;1.17;;
12194;SDS011;27023;42.680;23.132;2022-09-06T14:45:04;1.33;;;1.33;;
12194;SDS011;27023;42.680;23.132;2022-09-06T14:47:32;1.30;;;1.25;;
12194;SDS011;27023;42.680;23.132;2022-09-06T14:49:58;1.20;;;1.20;;
12194;SDS011;27023;42.680;23.132;2022-09-06T14:52:26;1.05;;;1.05;;
12194;SDS011;27023;42.680;23.132;2022-09-06T14:54:55;1.63;;;1.60;;
12194;SDS011;27023;42.680;23.132;2022-09-06T14:57:21;1.45;;;1.38;;
12194;SDS011;27023;42.680;23.132;2022-09-06T14:59:48;1.83;;;1.75;;
12194;SDS011;27023;42.680;23.132;2022-09-06T15:02:15;2.10;;;2.00;;
12194;SDS011;27023;42.680;23.132;2022-09-06T15:04:41;1.57;;;1.57;;
12194;SDS011;27023;42.680;23.132;2022-09-06T15:07:09;2.30;;;2.15;;